Time;durP1;ratioP1;P1;durP2;ratioP2;P2;SDS_P1;SDS_P2;PMS_P1;PMS_P2;Temp;Humidity;BMP_temperature;BMP_pressure;BME280_temperature;BME280_humidity;BME280_pressure;Samples;Min_cycle;Max_cycle;Signal;HPM_P1;HPM_P2
2022/09/01 00:00:31;;;;;;;;;;;;;;;;;;5057326;28;20354;-28
2022/09/01 00:02:57;;;;;;;;;;;;;;;;;;5074889;28;19916;-29
2022/09/01 00:05:23;;;;;;;;;;;;;;;;;;5074958;28;19905;-29
2022/09/01 00:07:51;;;;;;;;;;;;;;;;;;5074187;28;20205;-28
2022/09/01 00:10:17;;;;;;;;;;;;;;;;;;5075161;28;19913;-29
2022/09/01 00:12:44;;;;;;;;;;;;;;;;;;5074799;28;19985;-28
2022/09/01 00:15:10;;;;;;;;;;;;;;;;;;5074820;28;19923;-28
2022/09/01 00:17:36;;;;;;;;;;;;;;;;;;5075154;28;19978;-29
2022/09/01 00:20:02;;;;;;;;;;;;;;;;;;5074970;28;19913;-28
2022/09/01 00:22:28;;;;;;;;;;;;;;;;;;5074949;28;19913;-28
2022/09/01 00:24:55;;;;;;;;;;;;;;;;;;5074753;28;20378;-28
2022/09/01 00:27:21;;;;;;;;;;;;;;;;;;5074957;28;19913;-28
2022/09/01 00:29:47;;;;;;;;;;;;;;;;;;5057095;28;19912;-28
2022/09/01 00:32:13;;;;;;;;;;;;;;;;;;5074928;28;19912;-28
2022/09/01 00:34:39;;;;;;;;;;;;;;;;;;5074740;28;19995;-28
2022/09/01 00:37:05;;;;;;;;;;;;;;;;;;5075000;28;19912;-28
2022/09/01 00:39:31;;;;;;;;;;;;;;;;;;5075344;28;19969;-28
2022/09/01 00:41:58;;;;;;;;;;;;;;;;;;5056904;28;20288;-28
2022/09/01 00:44:26;;;;;;;;;;;;;;;;;;5074568;28;20363;-28
2022/09/01 00:46:52;;;;;;;;;;;;;;;;;;5074579;28;19916;-33
2022/09/01 00:49:18;;;;;;;;;;;;;;;;;;5056931;28;20316;-28
2022/09/01 00:51:44;;;;;;;;;;;;;;;;;;5077951;28;19970;-28
2022/09/01 00:54:10;;;;;;;;;;;;;;;;;;5078282;28;20225;-28
2022/09/01 00:56:37;;;;;;;;;;;;;;;;;;5078315;28;19995;-28
2022/09/01 00:59:03;;;;;;;;;;;;;;;;;;5078009;28;19939;-28
2022/09/01 01:01:29;;;;;;;;;;;;;;;;;;5060521;28;19913;-28
2022/09/01 01:03:56;;;;;;;;;;;;;;;;;;5060180;28;19921;-29
2022/09/01 01:06:26;;;;;;;;;;;;;;;;;;5077975;28;19912;-28
2022/09/01 01:08:56;;;;;;;;;;;;;;;;;;5077992;28;20341;-27
2022/09/01 01:11:22;;;;;;;;;;;;;;;;;;5078031;28;20354;-28
2022/09/01 01:13:49;;;;;;;;;;;;;;;;;;5078131;28;19912;-28
2022/09/01 01:16:15;;;;;;;;;;;;;;;;;;5077925;28;19916;-28
2022/09/01 01:18:41;;;;;;;;;;;;;;;;;;5078035;28;19967;-28
2022/09/01 01:23:52;;;;;;;;;;;;;;;;;;5077860;28;20019;-29
2022/09/01 01:26:18;;;;;;;;;;;;;;;;;;5077743;28;19948;-28
2022/09/01 01:28:44;;;;;;;;;;;;;;;;;;5077619;28;19912;-29
2022/09/01 01:31:13;;;;;;;;;;;;;;;;;;5060011;28;20339;-29
2022/09/01 01:33:40;;;;;;;;;;;;;;;;;;5077456;28;20353;-28
2022/09/01 01:36:06;;;;;;;;;;;;;;;;;;5059913;28;19908;-28
2022/09/01 01:38:34;;;;;;;;;;;;;;;;;;5077692;28;19912;-29
2022/09/01 01:41:01;;;;;;;;;;;;;;;;;;5059913;28;19948;-28
2022/09/01 01:43:27;;;;;;;;;;;;;;;;;;5077760;28;20057;-28
2022/09/01 01:45:53;;;;;;;;;;;;;;;;;;5077759;28;20312;-28
2022/09/01 01:48:22;;;;;;;;;;;;;;;;;;5059743;28;20023;-28
2022/09/01 01:50:48;;;;;;;;;;;;;;;;;;5077276;28;19908;-28
2022/09/01 01:53:16;;;;;;;;;;;;;;;;;;5077233;28;19912;-28
2022/09/01 01:55:42;;;;;;;;;;;;;;;;;;5077143;28;20331;-28
2022/09/01 01:58:10;;;;;;;;;;;;;;;;;;5077123;28;19912;-28
2022/09/01 02:00:36;;;;;;;;;;;;;;;;;;5059063;28;19955;-28
2022/09/01 02:03:02;;;;;;;;;;;;;;;;;;5076643;28;19916;-29
2022/09/01 02:05:28;;;;;;;;;;;;;;;;;;5076958;28;19943;-28
2022/09/01 02:07:54;;;;;;;;;;;;;;;;;;5077255;28;19920;-28
2022/09/01 02:10:21;;;;;;;;;;;;;;;;;;5059381;28;20320;-28
2022/09/01 02:12:47;;;;;;;;;;;;;;;;;;5059217;28;20000;-28
2022/09/01 02:15:14;;;;;;;;;;;;;;;;;;5059254;28;19923;-29
2022/09/01 02:17:41;;;;;;;;;;;;;;;;;;5076772;28;19944;-28
2022/09/01 02:20:07;;;;;;;;;;;;;;;;;;5058985;28;20422;-28
2022/09/01 02:22:36;;;;;;;;;;;;;;;;;;5076801;28;19936;-29
2022/09/01 02:25:02;;;;;;;;;;;;;;;;;;5076506;28;19923;-28
2022/09/01 02:27:28;;;;;;;;;;;;;;;;;;5059059;28;20318;-28
2022/09/01 02:29:54;;;;;;;;;;;;;;;;;;5076561;28;19912;-29
2022/09/01 02:32:20;;;;;;;;;;;;;;;;;;5076466;28;19950;-28
2022/09/01 02:34:48;;;;;;;;;;;;;;;;;;5076459;28;19912;-28
2022/09/01 02:37:14;;;;;;;;;;;;;;;;;;5076647;28;19938;-29
2022/09/01 02:39:40;;;;;;;;;;;;;;;;;;5076521;28;19920;-28
2022/09/01 02:42:07;;;;;;;;;;;;;;;;;;5076251;28;20371;-28
2022/09/01 02:44:33;;;;;;;;;;;;;;;;;;5076421;28;19924;-29
2022/09/01 02:46:59;;;;;;;;;;;;;;;;;;5076146;28;20263;-28
2022/09/01 02:49:27;;;;;;;;;;;;;;;;;;5076376;28;20007;-28
2022/09/01 02:51:56;;;;;;;;;;;;;;;;;;5058407;28;20351;-28
2022/09/01 02:54:23;;;;;;;;;;;;;;;;;;5076287;28;20005;-28
2022/09/01 02:56:49;;;;;;;;;;;;;;;;;;5075987;28;19924;-28
2022/09/01 02:59:15;;;;;;;;;;;;;;;;;;5058246;28;19920;-28
2022/09/01 03:01:46;;;;;;;;;;;;;;;;;;5076486;28;19982;-30
2022/09/01 03:04:12;;;;;;;;;;;;;;;;;;5075653;28;19924;-29
2022/09/01 03:06:38;;;;;;;;;;;;;;;;;;5058180;28;20327;-28
2022/09/01 03:09:04;;;;;;;;;;;;;;;;;;5076005;28;19913;-28
2022/09/01 03:11:30;;;;;;;;;;;;;;;;;;5075729;28;19943;-28
2022/09/01 03:13:56;;;;;;;;;;;;;;;;;;5074969;28;19991;-29
2022/09/01 03:16:22;;;;;;;;;;;;;;;;;;5058158;28;20343;-28
2022/09/01 03:18:49;;;;;;;;;;;;;;;;;;5075648;28;19909;-28
2022/09/01 03:21:15;;;;;;;;;;;;;;;;;;5057957;28;19913;-29
2022/09/01 03:23:42;;;;;;;;;;;;;;;;;;5057795;28;19987;-28
2022/09/01 03:26:08;;;;;;;;;;;;;;;;;;5075736;28;19951;-28
2022/09/01 03:28:36;;;;;;;;;;;;;;;;;;5075669;28;19920;-28
2022/09/01 03:31:02;;;;;;;;;;;;;;;;;;5075398;28;19920;-28
2022/09/01 03:33:28;;;;;;;;;;;;;;;;;;5057581;28;19912;-28
2022/09/01 03:35:54;;;;;;;;;;;;;;;;;;5075232;28;20030;-27
2022/09/01 03:38:23;;;;;;;;;;;;;;;;;;5075538;28;20251;-28
2022/09/01 03:40:49;;;;;;;;;;;;;;;;;;5075273;28;19912;-28
2022/09/01 03:43:18;;;;;;;;;;;;;;;;;;5075183;28;19921;-29
2022/09/01 03:45:44;;;;;;;;;;;;;;;;;;5075253;28;19999;-28
2022/09/01 03:48:11;;;;;;;;;;;;;;;;;;5075058;28;19913;-28
2022/09/01 03:50:43;;;;;;;;;;;;;;;;;;5075166;28;19914;-28
2022/09/01 03:53:09;;;;;;;;;;;;;;;;;;5075045;28;19912;-28
2022/09/01 03:55:37;;;;;;;;;;;;;;;;;;5075160;28;19962;-29
2022/09/01 03:58:05;;;;;;;;;;;;;;;;;;5075037;28;20351;-28
2022/09/01 04:00:31;;;;;;;;;;;;;;;;;;5057237;28;19977;-29
2022/09/01 04:02:57;;;;;;;;;;;;;;;;;;5074655;28;20001;-29
2022/09/01 04:05:27;;;;;;;;;;;;;;;;;;5074868;28;19934;-28
2022/09/01 04:07:53;;;;;;;;;;;;;;;;;;5075119;28;20010;-28
2022/09/01 04:10:21;;;;;;;;;;;;;;;;;;5074474;28;19908;-28
2022/09/01 04:12:47;;;;;;;;;;;;;;;;;;5074510;28;19969;-28
2022/09/01 04:15:13;;;;;;;;;;;;;;;;;;5074562;28;20327;-28
2022/09/01 04:20:23;;;;;;;;;;;;;;;;;;5074615;28;19927;-28
2022/09/01 04:22:50;;;;;;;;;;;;;;;;;;5074435;28;20317;-29
2022/09/01 04:25:16;;;;;;;;;;;;;;;;;;5077054;28;19909;-28
2022/09/01 04:27:42;;;;;;;;;;;;;;;;;;5078686;28;20310;-28
2022/09/01 04:30:09;;;;;;;;;;;;;;;;;;5078584;28;19908;-28
2022/09/01 04:32:36;;;;;;;;;;;;;;;;;;5078133;28;19912;-28
2022/09/01 04:35:02;;;;;;;;;;;;;;;;;;5078326;28;19912;-32
2022/09/01 04:37:28;;;;;;;;;;;;;;;;;;5078159;28;19912;-28
2022/09/01 04:39:54;;;;;;;;;;;;;;;;;;5078192;28;19987;-29
2022/09/01 04:42:22;;;;;;;;;;;;;;;;;;5078531;28;19912;-29
2022/09/01 04:44:48;;;;;;;;;;;;;;;;;;5078281;28;19908;-28
2022/09/01 04:47:17;;;;;;;;;;;;;;;;;;5060499;28;19912;-29
2022/09/01 04:49:47;;;;;;;;;;;;;;;;;;5060685;28;20297;-28
2022/09/01 04:52:13;;;;;;;;;;;;;;;;;;5078140;28;19908;-29
2022/09/01 04:54:39;;;;;;;;;;;;;;;;;;5078181;28;19936;-28
2022/09/01 04:57:08;;;;;;;;;;;;;;;;;;5060242;28;19923;-28
2022/09/01 04:59:34;;;;;;;;;;;;;;;;;;5060173;28;19921;-28
2022/09/01 05:02:00;;;;;;;;;;;;;;;;;;5077662;28;19999;-28
2022/09/01 05:04:26;;;;;;;;;;;;;;;;;;5077783;28;19964;-28
2022/09/01 05:06:59;;;;;;;;;;;;;;;;;;5077862;28;19920;-38
2022/09/01 05:09:25;;;;;;;;;;;;;;;;;;5078022;28;19913;-28
2022/09/01 05:11:51;;;;;;;;;;;;;;;;;;5077998;28;20350;-28
2022/09/01 05:14:19;;;;;;;;;;;;;;;;;;5077997;28;19913;-29
2022/09/01 05:16:45;;;;;;;;;;;;;;;;;;5060322;28;19920;-28
2022/09/01 05:19:13;;;;;;;;;;;;;;;;;;5077424;28;19916;-28
2022/09/01 05:21:39;;;;;;;;;;;;;;;;;;5059719;28;19912;-29
2022/09/01 05:24:05;;;;;;;;;;;;;;;;;;5077433;28;20240;-28
2022/09/01 05:26:32;;;;;;;;;;;;;;;;;;5077350;28;20095;-28
2022/09/01 05:28:58;;;;;;;;;;;;;;;;;;5077253;28;19923;-29
2022/09/01 05:31:26;;;;;;;;;;;;;;;;;;5077251;28;19912;-28
2022/09/01 05:33:52;;;;;;;;;;;;;;;;;;5076979;28;19912;-28
2022/09/01 05:36:18;;;;;;;;;;;;;;;;;;5076129;28;19919;-29
2022/09/01 05:38:45;;;;;;;;;;;;;;;;;;5076813;28;20311;-28
2022/09/01 05:41:13;;;;;;;;;;;;;;;;;;5077080;28;19950;-29
2022/09/01 05:43:47;;;;;;;;;;;;;;;;;;5059354;28;19913;-28
2022/09/01 05:46:17;;;;;;;;;;;;;;;;;;5077260;28;19909;-28
2022/09/01 05:48:43;;;;;;;;;;;;;;;;;;5076806;28;19924;-28
2022/09/01 05:51:09;;;;;;;;;;;;;;;;;;5076723;28;19909;-29
2022/09/01 05:53:36;;;;;;;;;;;;;;;;;;5076516;28;19919;-28
2022/09/01 05:56:05;;;;;;;;;;;;;;;;;;5076584;28;19932;-29
2022/09/01 05:58:31;;;;;;;;;;;;;;;;;;5076562;28;19945;-28
2022/09/01 06:03:43;;;;;;;;;;;;;;;;;;5192725;22;19925;-27
2022/09/01 06:06:11;;;;;;;;;;;;;;;;;;5017483;28;19913;-27
2022/09/01 06:08:37;;;;;;;;;;;;;;;;;;5016798;28;20332;-26
2022/09/01 06:11:11;;;;;;;;;;;;;;;;;;5017116;28;19925;-26
2022/09/01 06:13:38;;;;;;;;;;;;;;;;;;5016693;28;20003;-27
2022/09/01 06:16:06;;;;;;;;;;;;;;;;;;5017108;28;19953;-27
2022/09/01 06:18:33;;;;;;;;;;;;;;;;;;5016718;28;19917;-27
2022/09/01 06:20:59;;;;;;;;;;;;;;;;;;5016712;28;19983;-27
2022/09/01 06:23:25;;;;;;;;;;;;;;;;;;5016712;28;19910;-27
2022/09/01 06:25:51;;;;;;;;;;;;;;;;;;5016976;28;19940;-27
2022/09/01 06:28:17;;;;;;;;;;;;;;;;;;5017131;28;19928;-26
2022/09/01 06:30:44;;;;;;;;;;;;;;;;;;5016469;28;19917;-27
2022/09/01 06:33:11;;;;;;;;;;;;;;;;;;5016301;28;19927;-27
2022/09/01 06:35:37;;;;;;;;;;;;;;;;;;5016553;28;19914;-27
2022/09/01 06:38:03;;;;;;;;;;;;;;;;;;5016642;28;19928;-27
2022/09/01 06:40:31;;;;;;;;;;;;;;;;;;5016488;28;19971;-27
2022/09/01 06:42:59;;;;;;;;;;;;;;;;;;5016162;28;19996;-27
2022/09/01 06:45:25;;;;;;;;;;;;;;;;;;5016134;28;20052;-27
2022/09/01 06:47:51;;;;;;;;;;;;;;;;;;5016083;28;19967;-27
2022/09/01 06:50:18;;;;;;;;;;;;;;;;;;5016122;28;19910;-27
2022/09/01 06:52:44;;;;;;;;;;;;;;;;;;5016256;28;19924;-27
2022/09/01 06:55:10;;;;;;;;;;;;;;;;;;5016025;28;20332;-27
2022/09/01 06:57:36;;;;;;;;;;;;;;;;;;5016235;28;19975;-27
2022/09/01 07:00:06;;;;;;;;;;;;;;;;;;5015754;28;20012;-27
2022/09/01 07:02:32;;;;;;;;;;;;;;;;;;5015672;28;20251;-27
2022/09/01 07:04:58;;;;;;;;;;;;;;;;;;5016700;28;19914;-27
2022/09/01 07:07:33;;;;;;;;;;;;;;;;;;5015826;28;19913;-27
2022/09/01 07:09:59;;;;;;;;;;;;;;;;;;5016699;28;19910;-27
2022/09/01 07:12:25;;;;;;;;;;;;;;;;;;5015933;28;19924;-27
2022/09/01 07:14:51;;;;;;;;;;;;;;;;;;5015851;28;19917;-27
2022/09/01 07:17:18;;;;;;;;;;;;;;;;;;5015486;28;19910;-27
2022/09/01 07:19:45;;;;;;;;;;;;;;;;;;5015449;28;19956;-27
2022/09/01 07:22:11;;;;;;;;;;;;;;;;;;5015356;28;19996;-27
2022/09/01 07:24:38;;;;;;;;;;;;;;;;;;5015405;28;20003;-27
2022/09/01 07:27:05;;;;;;;;;;;;;;;;;;5015340;28;19910;-27
2022/09/01 07:29:31;;;;;;;;;;;;;;;;;;5015278;28;19917;-27
2022/09/01 07:31:58;;;;;;;;;;;;;;;;;;5015587;28;20311;-27
2022/09/01 07:34:24;;;;;;;;;;;;;;;;;;5015585;28;20340;-27
2022/09/01 07:36:55;;;;;;;;;;;;;;;;;;5015988;28;19917;-27
2022/09/01 07:39:21;;;;;;;;;;;;;;;;;;5015425;28;19917;-27
2022/09/01 07:41:47;;;;;;;;;;;;;;;;;;5015331;28;19920;-27
2022/09/01 07:44:13;;;;;;;;;;;;;;;;;;5015582;28;20272;-27
2022/09/01 07:46:39;;;;;;;;;;;;;;;;;;5015341;28;19909;-27
2022/09/01 07:49:05;;;;;;;;;;;;;;;;;;5015180;28;19924;-27
2022/09/01 07:51:33;;;;;;;;;;;;;;;;;;5015039;28;19914;-27
2022/09/01 07:54:01;;;;;;;;;;;;;;;;;;5014983;28;19945;-27
2022/09/01 07:56:27;;;;;;;;;;;;;;;;;;5015252;28;20039;-27
2022/09/01 07:58:53;;;;;;;;;;;;;;;;;;5014715;28;19923;-27
2022/09/01 08:01:19;;;;;;;;;;;;;;;;;;5015362;28;20323;-27
2022/09/01 08:03:45;;;;;;;;;;;;;;;;;;5014890;28;19967;-27
2022/09/01 08:06:11;;;;;;;;;;;;;;;;;;5015256;28;19960;-27
2022/09/01 08:08:38;;;;;;;;;;;;;;;;;;5014886;28;19917;-27
2022/09/01 08:11:04;;;;;;;;;;;;;;;;;;5015011;28;19916;-27
2022/09/01 08:13:30;;;;;;;;;;;;;;;;;;5014811;28;19921;-27
2022/09/01 08:15:56;;;;;;;;;;;;;;;;;;5014933;28;19953;-27
2022/09/01 08:18:22;;;;;;;;;;;;;;;;;;5014831;28;19920;-27
2022/09/01 08:20:48;;;;;;;;;;;;;;;;;;5014705;28;19913;-27
2022/09/01 08:23:14;;;;;;;;;;;;;;;;;;5014767;28;19960;-27
2022/09/01 08:25:41;;;;;;;;;;;;;;;;;;5015195;28;19921;-27
2022/09/01 08:28:07;;;;;;;;;;;;;;;;;;5015460;28;19940;-27
2022/09/01 08:30:33;;;;;;;;;;;;;;;;;;5014848;28;20324;-27
2022/09/01 08:32:59;;;;;;;;;;;;;;;;;;5014725;28;20248;-27
2022/09/01 08:35:28;;;;;;;;;;;;;;;;;;5015048;28;20403;-27
2022/09/01 08:37:54;;;;;;;;;;;;;;;;;;5015029;28;19940;-27
2022/09/01 08:40:21;;;;;;;;;;;;;;;;;;5014968;28;20348;-27
2022/09/01 08:42:47;;;;;;;;;;;;;;;;;;5014651;28;19921;-27
2022/09/01 08:45:13;;;;;;;;;;;;;;;;;;5014792;28;19922;-27
2022/09/01 08:47:39;;;;;;;;;;;;;;;;;;5015108;28;19909;-27
2022/09/01 08:50:05;;;;;;;;;;;;;;;;;;5015873;28;20256;-27
2022/09/01 08:52:31;;;;;;;;;;;;;;;;;;5014681;28;19923;-27
2022/09/01 08:54:57;;;;;;;;;;;;;;;;;;5014687;28;19914;-27
2022/09/01 08:57:25;;;;;;;;;;;;;;;;;;5014728;28;19920;-27
2022/09/01 08:59:51;;;;;;;;;;;;;;;;;;5014572;28;20344;-27
2022/09/01 09:02:17;;;;;;;;;;;;;;;;;;5014616;28;19920;-27
2022/09/01 09:04:46;;;;;;;;;;;;;;;;;;5014641;28;19928;-28
2022/09/01 09:07:12;;;;;;;;;;;;;;;;;;5014791;28;19916;-27
2022/09/01 09:09:38;;;;;;;;;;;;;;;;;;5014485;28;19996;-27
2022/09/01 09:12:05;;;;;;;;;;;;;;;;;;5016241;28;20335;-27
2022/09/01 09:14:31;;;;;;;;;;;;;;;;;;5018313;28;19913;-27
2022/09/01 09:16:57;;;;;;;;;;;;;;;;;;5018259;28;19914;-27
2022/09/01 09:19:23;;;;;;;;;;;;;;;;;;5018123;28;19918;-28
2022/09/01 09:21:49;;;;;;;;;;;;;;;;;;5017859;28;19909;-28
2022/09/01 09:24:15;;;;;;;;;;;;;;;;;;5018054;28;19976;-27
2022/09/01 09:26:41;;;;;;;;;;;;;;;;;;5018031;28;20051;-27
2022/09/01 09:29:07;;;;;;;;;;;;;;;;;;5017702;28;19913;-27
2022/09/01 09:31:33;;;;;;;;;;;;;;;;;;5017582;28;19975;-27
2022/09/01 09:33:59;;;;;;;;;;;;;;;;;;5017427;28;20008;-27
2022/09/01 09:36:25;;;;;;;;;;;;;;;;;;5017490;28;19948;-26
2022/09/01 09:38:52;;;;;;;;;;;;;;;;;;5017710;28;19968;-26
2022/09/01 09:41:17;;;;;;;;;;;;;;;;;;5017700;28;19914;-27
2022/09/01 09:43:43;;;;;;;;;;;;;;;;;;5017416;28;20385;-27
2022/09/01 09:46:10;;;;;;;;;;;;;;;;;;5017672;28;19914;-28
2022/09/01 09:48:36;;;;;;;;;;;;;;;;;;5017315;28;20012;-27
2022/09/01 09:51:02;;;;;;;;;;;;;;;;;;5017288;28;20360;-27
2022/09/01 09:53:29;;;;;;;;;;;;;;;;;;5017136;28;19920;-27
2022/09/01 09:55:55;;;;;;;;;;;;;;;;;;5017404;28;19910;-28
2022/09/01 09:58:24;;;;;;;;;;;;;;;;;;5017374;28;19914;-27
2022/09/01 10:00:50;;;;;;;;;;;;;;;;;;5017002;28;19917;-27
2022/09/01 10:03:17;;;;;;;;;;;;;;;;;;5017047;28;19921;-27
2022/09/01 10:05:43;;;;;;;;;;;;;;;;;;5017275;28;19909;-27
2022/09/01 10:08:10;;;;;;;;;;;;;;;;;;5017071;28;20255;-27
2022/09/01 10:10:37;;;;;;;;;;;;;;;;;;5017202;28;20295;-27
2022/09/01 10:13:03;;;;;;;;;;;;;;;;;;5016799;28;19924;-28
2022/09/01 10:15:29;;;;;;;;;;;;;;;;;;5016995;28;19921;-27
2022/09/01 10:17:56;;;;;;;;;;;;;;;;;;5016923;28;19913;-28
2022/09/01 10:20:22;;;;;;;;;;;;;;;;;;5016556;28;19928;-27
2022/09/01 10:22:48;;;;;;;;;;;;;;;;;;5016280;28;19913;-27
2022/09/01 10:25:14;;;;;;;;;;;;;;;;;;5017314;28;19914;-27
2022/09/01 10:27:40;;;;;;;;;;;;;;;;;;5016566;28;20352;-27
2022/09/01 10:30:06;;;;;;;;;;;;;;;;;;5016538;28;19913;-27
2022/09/01 10:32:32;;;;;;;;;;;;;;;;;;5016349;28;20244;-27
2022/09/01 10:34:58;;;;;;;;;;;;;;;;;;5016450;28;19910;-28
2022/09/01 10:37:24;;;;;;;;;;;;;;;;;;5016912;28;19914;-27
2022/09/01 10:39:50;;;;;;;;;;;;;;;;;;5016417;28;19974;-28
2022/09/01 10:42:16;;;;;;;;;;;;;;;;;;5016533;28;19910;-27
2022/09/01 10:44:42;;;;;;;;;;;;;;;;;;5016165;28;19913;-27
2022/09/01 10:47:08;;;;;;;;;;;;;;;;;;5015301;28;19947;-27
2022/09/01 10:49:34;;;;;;;;;;;;;;;;;;5016079;28;19913;-27
2022/09/01 10:52:00;;;;;;;;;;;;;;;;;;5016096;28;19961;-27
2022/09/01 10:54:26;;;;;;;;;;;;;;;;;;5016013;28;19921;-27
2022/09/01 10:56:52;;;;;;;;;;;;;;;;;;5016433;28;19909;-28
2022/09/01 10:59:19;;;;;;;;;;;;;;;;;;5016086;28;19918;-27
2022/09/01 11:01:45;;;;;;;;;;;;;;;;;;5015868;28;19920;-27
2022/09/01 11:04:11;;;;;;;;;;;;;;;;;;5015716;28;19922;-28
2022/09/01 11:06:37;;;;;;;;;;;;;;;;;;5014843;28;19988;-27
2022/09/01 11:09:03;;;;;;;;;;;;;;;;;;5015742;28;20263;-27
2022/09/01 11:11:29;;;;;;;;;;;;;;;;;;5015724;28;19913;-27
2022/09/01 11:13:55;;;;;;;;;;;;;;;;;;5015851;28;20112;-27
2022/09/01 11:16:21;;;;;;;;;;;;;;;;;;5016189;28;20317;-27
2022/09/01 11:18:49;;;;;;;;;;;;;;;;;;5015985;28;20028;-27
2022/09/01 11:21:16;;;;;;;;;;;;;;;;;;5015683;28;19921;-27
2022/09/01 11:23:44;;;;;;;;;;;;;;;;;;5015850;28;20007;-27
2022/09/01 11:26:10;;;;;;;;;;;;;;;;;;5015908;28;20008;-27
2022/09/01 11:28:36;;;;;;;;;;;;;;;;;;5015511;28;20380;-28
2022/09/01 11:31:02;;;;;;;;;;;;;;;;;;5015529;28;19992;-27
2022/09/01 11:33:28;;;;;;;;;;;;;;;;;;5014917;28;20352;-27
2022/09/01 11:35:54;;;;;;;;;;;;;;;;;;5015203;28;19917;-27
2022/09/01 11:38:20;;;;;;;;;;;;;;;;;;5015437;28;19917;-27
2022/09/01 11:40:46;;;;;;;;;;;;;;;;;;5015264;28;20028;-28
2022/09/01 11:43:12;;;;;;;;;;;;;;;;;;5015117;28;19913;-27
2022/09/01 11:45:38;;;;;;;;;;;;;;;;;;5015434;28;20008;-27
2022/09/01 11:48:04;;;;;;;;;;;;;;;;;;5015319;28;20336;-27
2022/09/01 11:50:31;;;;;;;;;;;;;;;;;;5015026;28;19914;-27
2022/09/01 11:52:57;;;;;;;;;;;;;;;;;;5015270;28;19949;-27
2022/09/01 11:55:23;;;;;;;;;;;;;;;;;;5015470;28;19933;-27
2022/09/01 11:57:49;;;;;;;;;;;;;;;;;;5015744;28;19921;-27
2022/09/01 12:00:15;;;;;;;;;;;;;;;;;;5015073;28;19987;-27
2022/09/01 12:02:41;;;;;;;;;;;;;;;;;;5014790;28;19962;-27
2022/09/01 12:05:07;;;;;;;;;;;;;;;;;;5014880;28;19967;-27
2022/09/01 12:07:33;;;;;;;;;;;;;;;;;;5014948;28;19924;-27
2022/09/01 12:09:59;;;;;;;;;;;;;;;;;;5015210;28;19914;-28
2022/09/01 12:12:25;;;;;;;;;;;;;;;;;;5013927;28;20236;-27
2022/09/01 12:14:51;;;;;;;;;;;;;;;;;;5015675;28;19918;-27
2022/09/01 12:17:17;;;;;;;;;;;;;;;;;;5014946;28;19960;-27
2022/09/01 12:19:43;;;;;;;;;;;;;;;;;;5014756;28;20354;-27
2022/09/01 12:22:09;;;;;;;;;;;;;;;;;;5014779;28;19913;-27
2022/09/01 12:24:35;;;;;;;;;;;;;;;;;;5014923;28;19945;-27
2022/09/01 12:27:01;;;;;;;;;;;;;;;;;;5014869;28;19920;-28
2022/09/01 12:29:28;;;;;;;;;;;;;;;;;;5015146;28;19909;-28
2022/09/01 12:31:54;;;;;;;;;;;;;;;;;;5014862;28;19913;-27
2022/09/01 12:34:20;;;;;;;;;;;;;;;;;;5014811;28;19913;-27
2022/09/01 12:36:46;;;;;;;;;;;;;;;;;;5015070;28;19929;-28
2022/09/01 12:39:12;;;;;;;;;;;;;;;;;;5014649;28;19926;-28
2022/09/01 12:41:38;;;;;;;;;;;;;;;;;;5015873;28;20206;-28
2022/09/01 12:44:04;;;;;;;;;;;;;;;;;;5015131;28;20007;-28
2022/09/01 12:46:30;;;;;;;;;;;;;;;;;;5018361;28;19921;-28
2022/09/01 12:48:56;;;;;;;;;;;;;;;;;;5018788;28;19948;-28
2022/09/01 12:51:22;;;;;;;;;;;;;;;;;;5018125;28;19913;-28
2022/09/01 12:53:48;;;;;;;;;;;;;;;;;;5018341;28;19987;-28
2022/09/01 12:56:14;;;;;;;;;;;;;;;;;;5018662;28;19909;-28
2022/09/01 12:58:42;;;;;;;;;;;;;;;;;;5018377;28;20023;-28
2022/09/01 13:01:08;;;;;;;;;;;;;;;;;;5017830;28;19924;-28
2022/09/01 13:03:34;;;;;;;;;;;;;;;;;;5017719;28;19921;-28
2022/09/01 13:06:00;;;;;;;;;;;;;;;;;;5018414;28;19975;-27
2022/09/01 13:08:27;;;;;;;;;;;;;;;;;;5018098;28;20280;-27
2022/09/01 13:10:53;;;;;;;;;;;;;;;;;;5018478;28;19937;-27
2022/09/01 13:13:19;;;;;;;;;;;;;;;;;;5017929;28;19910;-27
2022/09/01 13:15:46;;;;;;;;;;;;;;;;;;5017968;28;20374;-27
2022/09/01 13:18:13;;;;;;;;;;;;;;;;;;5018020;28;19956;-27
2022/09/01 13:20:40;;;;;;;;;;;;;;;;;;5017882;28;19917;-27
2022/09/01 13:23:06;;;;;;;;;;;;;;;;;;5017870;28;19925;-27
2022/09/01 13:25:32;;;;;;;;;;;;;;;;;;5018687;28;19914;-27
2022/09/01 13:28:00;;;;;;;;;;;;;;;;;;5017838;28;19920;-27
2022/09/01 13:30:27;;;;;;;;;;;;;;;;;;5017742;28;20318;-27
2022/09/01 13:32:53;;;;;;;;;;;;;;;;;;5017614;28;19975;-27
2022/09/01 13:35:19;;;;;;;;;;;;;;;;;;5017605;28;19914;-26
2022/09/01 13:37:45;;;;;;;;;;;;;;;;;;5017821;28;20012;-26
2022/09/01 13:40:14;;;;;;;;;;;;;;;;;;5017770;28;20025;-26
2022/09/01 13:42:40;;;;;;;;;;;;;;;;;;5017682;28;20000;-27
2022/09/01 13:45:06;;;;;;;;;;;;;;;;;;5017725;28;19952;-27
2022/09/01 13:47:32;;;;;;;;;;;;;;;;;;5017368;28;20272;-27
2022/09/01 13:49:58;;;;;;;;;;;;;;;;;;5018053;28;19909;-27
2022/09/01 13:52:24;;;;;;;;;;;;;;;;;;5017470;28;19914;-27
2022/09/01 13:54:50;;;;;;;;;;;;;;;;;;5017877;28;20394;-27
2022/09/01 13:57:16;;;;;;;;;;;;;;;;;;5016875;28;19910;-28
2022/09/01 13:59:42;;;;;;;;;;;;;;;;;;5017522;28;20353;-27
2022/09/01 14:02:09;;;;;;;;;;;;;;;;;;5017166;28;19969;-27
2022/09/01 14:04:35;;;;;;;;;;;;;;;;;;5017003;28;20308;-27
2022/09/01 14:07:01;;;;;;;;;;;;;;;;;;5017094;28;19917;-27
2022/09/01 14:09:27;;;;;;;;;;;;;;;;;;5017602;28;19917;-28
2022/09/01 14:11:53;;;;;;;;;;;;;;;;;;5016850;28;20375;-27
2022/09/01 14:14:19;;;;;;;;;;;;;;;;;;5016860;28;20012;-28
2022/09/01 14:16:45;;;;;;;;;;;;;;;;;;5017188;28;19914;-28
2022/09/01 14:19:11;;;;;;;;;;;;;;;;;;5016773;28;20256;-27
2022/09/01 14:21:37;;;;;;;;;;;;;;;;;;5016777;28;19952;-27
2022/09/01 14:24:03;;;;;;;;;;;;;;;;;;5016959;28;19940;-27
2022/09/01 14:26:29;;;;;;;;;;;;;;;;;;5016790;28;19917;-26
2022/09/01 14:28:55;;;;;;;;;;;;;;;;;;5016935;28;19921;-26
2022/09/01 14:31:21;;;;;;;;;;;;;;;;;;5016740;28;19910;-27
2022/09/01 14:33:47;;;;;;;;;;;;;;;;;;5017091;28;20273;-27
2022/09/01 14:36:13;;;;;;;;;;;;;;;;;;5016888;28;19987;-27
2022/09/01 14:38:39;;;;;;;;;;;;;;;;;;5016607;28;19913;-27
2022/09/01 14:41:05;;;;;;;;;;;;;;;;;;5016962;28;19918;-27
2022/09/01 14:43:31;;;;;;;;;;;;;;;;;;5016587;28;19921;-27
2022/09/01 14:45:57;;;;;;;;;;;;;;;;;;5016383;28;20246;-27
2022/09/01 14:48:23;;;;;;;;;;;;;;;;;;5016244;28;20354;-27
2022/09/01 14:50:49;;;;;;;;;;;;;;;;;;5016208;28;19918;-28
2022/09/01 14:53:15;;;;;;;;;;;;;;;;;;5016448;28;20004;-27
2022/09/01 14:55:42;;;;;;;;;;;;;;;;;;5016299;28;20336;-27
2022/09/01 14:58:08;;;;;;;;;;;;;;;;;;5016512;28;19921;-27
2022/09/01 15:00:34;;;;;;;;;;;;;;;;;;5016016;28;19913;-27
2022/09/01 15:03:00;;;;;;;;;;;;;;;;;;5016598;28;19925;-26
2022/09/01 15:05:26;;;;;;;;;;;;;;;;;;5016034;28;19932;-27
2022/09/01 15:07:52;;;;;;;;;;;;;;;;;;5015929;28;19945;-26
2022/09/01 15:10:18;;;;;;;;;;;;;;;;;;5015216;28;19945;-27
2022/09/01 15:12:44;;;;;;;;;;;;;;;;;;5016120;28;19920;-26
2022/09/01 15:15:10;;;;;;;;;;;;;;;;;;5016131;28;19925;-27
2022/09/01 15:17:36;;;;;;;;;;;;;;;;;;5015827;28;20332;-27
2022/09/01 15:22:46;;;;;;;;;;;;;;;;;;5015883;28;19968;-27
2022/09/01 15:25:12;;;;;;;;;;;;;;;;;;5015884;28;19917;-27
2022/09/01 15:27:38;;;;;;;;;;;;;;;;;;5015862;28;20366;-27
2022/09/01 15:30:13;;;;;;;;;;;;;;;;;;5016064;28;19913;-27
2022/09/01 15:32:39;;;;;;;;;;;;;;;;;;5016126;28;19956;-27
2022/09/01 15:35:05;;;;;;;;;;;;;;;;;;5015926;28;19913;-27
2022/09/01 15:37:31;;;;;;;;;;;;;;;;;;5015817;28;20351;-27
2022/09/01 15:39:57;;;;;;;;;;;;;;;;;;5015535;28;19964;-27
2022/09/01 15:42:23;;;;;;;;;;;;;;;;;;5015644;28;19913;-27
2022/09/01 15:44:49;;;;;;;;;;;;;;;;;;5015514;28;19909;-27
2022/09/01 15:47:15;;;;;;;;;;;;;;;;;;5016042;28;19913;-28
2022/09/01 15:49:41;;;;;;;;;;;;;;;;;;5015438;28;19918;-28
2022/09/01 15:52:08;;;;;;;;;;;;;;;;;;5015299;28;19920;-28
2022/09/01 15:54:34;;;;;;;;;;;;;;;;;;5015589;28;19913;-28
2022/09/01 15:57:00;;;;;;;;;;;;;;;;;;5015311;28;20257;-28
2022/09/01 15:59:26;;;;;;;;;;;;;;;;;;5015789;28;19967;-28
2022/09/01 16:01:52;;;;;;;;;;;;;;;;;;5015226;28;19913;-28
2022/09/01 16:04:18;;;;;;;;;;;;;;;;;;5015098;28;19922;-28
2022/09/01 16:06:44;;;;;;;;;;;;;;;;;;5015238;28;19940;-28
2022/09/01 16:09:10;;;;;;;;;;;;;;;;;;5015058;28;19917;-28
2022/09/01 16:11:36;;;;;;;;;;;;;;;;;;5015166;28;19913;-28
2022/09/01 16:14:02;;;;;;;;;;;;;;;;;;5015084;28;19913;-28
2022/09/01 16:16:30;;;;;;;;;;;;;;;;;;5015137;28;20272;-28
2022/09/01 16:18:57;;;;;;;;;;;;;;;;;;5015399;28;20280;-28
2022/09/01 16:21:23;;;;;;;;;;;;;;;;;;5018116;28;19944;-28
2022/09/01 16:23:49;;;;;;;;;;;;;;;;;;5018991;28;20011;-28
2022/09/01 16:26:16;;;;;;;;;;;;;;;;;;5019315;28;19914;-28
2022/09/01 16:28:42;;;;;;;;;;;;;;;;;;5018973;28;19910;-28
2022/09/01 16:31:08;;;;;;;;;;;;;;;;;;5019029;28;19987;-28
2022/09/01 16:33:34;;;;;;;;;;;;;;;;;;5018924;28;19939;-28
2022/09/01 16:36:00;;;;;;;;;;;;;;;;;;5018921;28;19917;-28
2022/09/01 16:38:26;;;;;;;;;;;;;;;;;;5018837;28;19964;-28
2022/09/01 16:40:53;;;;;;;;;;;;;;;;;;5019006;28;20115;-28
2022/09/01 16:43:19;;;;;;;;;;;;;;;;;;5018699;28;19921;-28
2022/09/01 16:45:45;;;;;;;;;;;;;;;;;;5019041;28;19910;-28
2022/09/01 16:48:11;;;;;;;;;;;;;;;;;;5019218;28;19925;-28
2022/09/01 16:50:37;;;;;;;;;;;;;;;;;;5018995;28;19945;-28